sensor_id;sensor_type;location;lat;lon;timestamp;P1;durP1;ratioP1;P2;durP2;ratioP2
68432;SDS011;55412;51.350;17.056;2023-06-26T00:00:20;7.45;;;3.47;;
68432;SDS011;55412;51.350;17.056;2023-06-26T00:02:46;11.25;;;3.35;;
68432;SDS011;55412;51.350;17.056;2023-06-26T00:05:12;7.43;;;3.23;;
68432;SDS011;55412;51.350;17.056;2023-06-26T00:07:38;6.32;;;3.00;;
68432;SDS011;55412;51.350;17.056;2023-06-26T00:10:05;6.45;;;3.50;;
68432;SDS011;55412;51.350;17.056;2023-06-26T00:12:32;7.47;;;3.25;;
68432;SDS011;55412;51.350;17.056;2023-06-26T00:14:58;8.40;;;2.80;;
68432;SDS011;55412;51.350;17.056;2023-06-26T00:17:25;6.70;;;3.00;;
68432;SDS011;55412;51.350;17.056;2023-06-26T00:19:51;7.80;;;2.50;;
68432;SDS011;55412;51.350;17.056;2023-06-26T00:22:18;5.38;;;2.60;;
68432;SDS011;55412;51.350;17.056;2023-06-26T00:24:45;5.95;;;2.60;;
68432;SDS011;55412;51.350;17.056;2023-06-26T00:27:11;8.23;;;2.90;;
68432;SDS011;55412;51.350;17.056;2023-06-26T00:29:37;8.23;;;2.93;;
68432;SDS011;55412;51.350;17.056;2023-06-26T00:32:04;5.72;;;2.83;;
68432;SDS011;55412;51.350;17.056;2023-06-26T00:34:31;7.18;;;3.65;;
68432;SDS011;55412;51.350;17.056;2023-06-26T00:36:57;7.10;;;3.50;;
68432;SDS011;55412;51.350;17.056;2023-06-26T00:39:25;9.38;;;3.38;;
68432;SDS011;55412;51.350;17.056;2023-06-26T00:41:51;6.93;;;3.30;;
68432;SDS011;55412;51.350;17.056;2023-06-26T00:44:24;10.73;;;3.00;;
68432;SDS011;55412;51.350;17.056;2023-06-26T00:46:50;6.60;;;3.05;;
68432;SDS011;55412;51.350;17.056;2023-06-26T00:49:16;7.72;;;3.30;;
68432;SDS011;55412;51.350;17.056;2023-06-26T00:51:42;6.88;;;3.47;;
68432;SDS011;55412;51.350;17.056;2023-06-26T00:54:09;15.80;;;3.80;;
68432;SDS011;55412;51.350;17.056;2023-06-26T00:56:35;7.43;;;3.08;;
68432;SDS011;55412;51.350;17.056;2023-06-26T00:59:02;7.10;;;2.80;;
68432;SDS011;55412;51.350;17.056;2023-06-26T01:01:28;7.60;;;3.35;;
68432;SDS011;55412;51.350;17.056;2023-06-26T01:03:54;7.03;;;3.23;;
68432;SDS011;55412;51.350;17.056;2023-06-26T01:06:22;9.27;;;3.38;;
68432;SDS011;55412;51.350;17.056;2023-06-26T01:08:51;9.93;;;3.35;;
68432;SDS011;55412;51.350;17.056;2023-06-26T01:11:17;8.70;;;3.28;;
68432;SDS011;55412;51.350;17.056;2023-06-26T01:13:44;5.93;;;3.30;;
68432;SDS011;55412;51.350;17.056;2023-06-26T01:16:11;6.33;;;3.17;;
68432;SDS011;55412;51.350;17.056;2023-06-26T01:18:38;7.43;;;3.33;;
68432;SDS011;55412;51.350;17.056;2023-06-26T01:21:10;8.27;;;3.80;;
68432;SDS011;55412;51.350;17.056;2023-06-26T01:28:52;8.27;;;3.20;;
68432;SDS011;55412;51.350;17.056;2023-06-26T01:31:21;7.13;;;3.45;;
68432;SDS011;55412;51.350;17.056;2023-06-26T01:33:48;7.18;;;3.22;;
68432;SDS011;55412;51.350;17.056;2023-06-26T01:36:15;6.90;;;3.83;;
68432;SDS011;55412;51.350;17.056;2023-06-26T01:38:42;7.55;;;3.88;;
68432;SDS011;55412;51.350;17.056;2023-06-26T01:41:08;6.60;;;3.57;;
68432;SDS011;55412;51.350;17.056;2023-06-26T01:55:12;7.07;;;3.33;;
68432;SDS011;55412;51.350;17.056;2023-06-26T01:57:49;7.15;;;3.90;;
68432;SDS011;55412;51.350;17.056;2023-06-26T02:00:22;13.02;;;3.70;;
68432;SDS011;55412;51.350;17.056;2023-06-26T02:02:49;9.63;;;3.85;;
68432;SDS011;55412;51.350;17.056;2023-06-26T02:05:15;9.13;;;3.88;;
68432;SDS011;55412;51.350;17.056;2023-06-26T02:07:41;8.73;;;4.03;;
68432;SDS011;55412;51.350;17.056;2023-06-26T02:10:09;8.48;;;3.38;;
68432;SDS011;55412;51.350;17.056;2023-06-26T02:12:36;7.80;;;3.20;;
68432;SDS011;55412;51.350;17.056;2023-06-26T02:15:03;8.50;;;3.72;;
68432;SDS011;55412;51.350;17.056;2023-06-26T02:17:30;6.57;;;2.90;;
68432;SDS011;55412;51.350;17.056;2023-06-26T02:19:56;6.60;;;3.43;;
68432;SDS011;55412;51.350;17.056;2023-06-26T02:22:22;7.88;;;3.42;;
68432;SDS011;55412;51.350;17.056;2023-06-26T02:24:48;7.57;;;3.75;;
68432;SDS011;55412;51.350;17.056;2023-06-26T02:27:14;6.72;;;3.47;;
68432;SDS011;55412;51.350;17.056;2023-06-26T02:29:40;7.70;;;3.63;;
68432;SDS011;55412;51.350;17.056;2023-06-26T02:32:07;8.07;;;3.43;;
68432;SDS011;55412;51.350;17.056;2023-06-26T02:34:33;6.80;;;3.50;;
68432;SDS011;55412;51.350;17.056;2023-06-26T02:37:00;8.05;;;3.30;;
68432;SDS011;55412;51.350;17.056;2023-06-26T02:39:27;7.32;;;3.47;;
68432;SDS011;55412;51.350;17.056;2023-06-26T02:41:53;7.25;;;3.33;;
68432;SDS011;55412;51.350;17.056;2023-06-26T02:44:19;7.63;;;3.40;;
68432;SDS011;55412;51.350;17.056;2023-06-26T02:46:46;11.48;;;3.80;;
68432;SDS011;55412;51.350;17.056;2023-06-26T02:49:12;6.10;;;3.33;;
68432;SDS011;55412;51.350;17.056;2023-06-26T02:51:38;7.70;;;4.05;;
68432;SDS011;55412;51.350;17.056;2023-06-26T02:54:04;12.57;;;4.68;;
68432;SDS011;55412;51.350;17.056;2023-06-26T02:56:30;7.40;;;3.87;;
68432;SDS011;55412;51.350;17.056;2023-06-26T02:58:57;7.85;;;3.90;;
68432;SDS011;55412;51.350;17.056;2023-06-26T03:01:23;7.47;;;3.92;;
68432;SDS011;55412;51.350;17.056;2023-06-26T03:03:49;7.85;;;4.10;;
68432;SDS011;55412;51.350;17.056;2023-06-26T03:06:16;10.15;;;4.55;;
68432;SDS011;55412;51.350;17.056;2023-06-26T03:08:42;7.27;;;4.20;;
68432;SDS011;55412;51.350;17.056;2023-06-26T03:11:08;9.20;;;4.30;;
68432;SDS011;55412;51.350;17.056;2023-06-26T03:13:35;8.88;;;4.05;;
68432;SDS011;55412;51.350;17.056;2023-06-26T03:16:02;9.68;;;4.05;;
68432;SDS011;55412;51.350;17.056;2023-06-26T03:18:29;8.88;;;4.07;;
68432;SDS011;55412;51.350;17.056;2023-06-26T03:20:55;12.20;;;3.90;;
68432;SDS011;55412;51.350;17.056;2023-06-26T03:23:22;11.32;;;3.70;;
68432;SDS011;55412;51.350;17.056;2023-06-26T03:25:49;7.82;;;3.63;;
68432;SDS011;55412;51.350;17.056;2023-06-26T03:28:16;11.60;;;3.50;;
68432;SDS011;55412;51.350;17.056;2023-06-26T03:30:42;8.07;;;3.10;;
68432;SDS011;55412;51.350;17.056;2023-06-26T03:33:08;8.47;;;3.50;;
68432;SDS011;55412;51.350;17.056;2023-06-26T03:35:34;7.82;;;3.55;;
68432;SDS011;55412;51.350;17.056;2023-06-26T03:38:00;7.00;;;2.72;;
68432;SDS011;55412;51.350;17.056;2023-06-26T03:40:29;8.20;;;3.72;;
68432;SDS011;55412;51.350;17.056;2023-06-26T03:42:56;8.50;;;3.00;;
68432;SDS011;55412;51.350;17.056;2023-06-26T03:45:22;10.97;;;3.80;;
68432;SDS011;55412;51.350;17.056;2023-06-26T03:47:48;7.75;;;3.13;;
68432;SDS011;55412;51.350;17.056;2023-06-26T03:50:18;9.77;;;3.40;;
68432;SDS011;55412;51.350;17.056;2023-06-26T03:52:45;10.30;;;3.40;;
68432;SDS011;55412;51.350;17.056;2023-06-26T03:55:11;9.57;;;3.83;;
68432;SDS011;55412;51.350;17.056;2023-06-26T03:57:37;8.63;;;3.70;;
68432;SDS011;55412;51.350;17.056;2023-06-26T04:00:03;8.57;;;3.08;;
68432;SDS011;55412;51.350;17.056;2023-06-26T04:02:34;7.97;;;3.55;;
68432;SDS011;55412;51.350;17.056;2023-06-26T04:05:00;10.60;;;3.67;;
68432;SDS011;55412;51.350;17.056;2023-06-26T04:07:29;8.15;;;4.03;;
68432;SDS011;55412;51.350;17.056;2023-06-26T04:09:56;7.70;;;3.23;;
68432;SDS011;55412;51.350;17.056;2023-06-26T04:12:23;10.15;;;4.60;;
68432;SDS011;55412;51.350;17.056;2023-06-26T04:14:49;8.48;;;3.53;;
68432;SDS011;55412;51.350;17.056;2023-06-26T04:17:15;11.57;;;4.43;;
68432;SDS011;55412;51.350;17.056;2023-06-26T04:19:41;11.05;;;5.20;;
68432;SDS011;55412;51.350;17.056;2023-06-26T04:22:07;10.13;;;4.47;;
68432;SDS011;55412;51.350;17.056;2023-06-26T04:24:33;7.93;;;3.75;;
68432;SDS011;55412;51.350;17.056;2023-06-26T04:26:59;8.65;;;4.15;;
68432;SDS011;55412;51.350;17.056;2023-06-26T04:29:25;10.98;;;4.78;;
68432;SDS011;55412;51.350;17.056;2023-06-26T04:31:52;9.93;;;4.10;;
68432;SDS011;55412;51.350;17.056;2023-06-26T04:34:23;8.43;;;4.17;;
68432;SDS011;55412;51.350;17.056;2023-06-26T04:36:51;9.23;;;4.65;;
68432;SDS011;55412;51.350;17.056;2023-06-26T04:39:17;7.82;;;4.15;;
68432;SDS011;55412;51.350;17.056;2023-06-26T04:41:44;10.45;;;4.80;;
68432;SDS011;55412;51.350;17.056;2023-06-26T04:44:10;9.68;;;4.85;;
68432;SDS011;55412;51.350;17.056;2023-06-26T04:46:37;7.63;;;4.13;;
68432;SDS011;55412;51.350;17.056;2023-06-26T04:49:06;8.32;;;4.55;;
68432;SDS011;55412;51.350;17.056;2023-06-26T04:51:33;8.63;;;4.00;;
68432;SDS011;55412;51.350;17.056;2023-06-26T04:54:05;9.40;;;4.45;;
68432;SDS011;55412;51.350;17.056;2023-06-26T04:56:40;7.50;;;4.65;;
68432;SDS011;55412;51.350;17.056;2023-06-26T04:59:07;7.93;;;4.73;;
68432;SDS011;55412;51.350;17.056;2023-06-26T05:01:38;8.80;;;4.20;;
68432;SDS011;55412;51.350;17.056;2023-06-26T05:04:05;8.13;;;4.32;;
68432;SDS011;55412;51.350;17.056;2023-06-26T05:06:31;8.10;;;4.45;;
68432;SDS011;55412;51.350;17.056;2023-06-26T05:08:57;8.13;;;3.72;;
68432;SDS011;55412;51.350;17.056;2023-06-26T05:11:24;8.47;;;4.20;;
68432;SDS011;55412;51.350;17.056;2023-06-26T05:13:50;9.48;;;4.50;;
68432;SDS011;55412;51.350;17.056;2023-06-26T05:16:16;8.55;;;4.57;;
68432;SDS011;55412;51.350;17.056;2023-06-26T05:18:42;6.55;;;3.47;;
68432;SDS011;55412;51.350;17.056;2023-06-26T05:21:09;7.20;;;3.83;;
68432;SDS011;55412;51.350;17.056;2023-06-26T05:23:35;6.30;;;3.40;;
68432;SDS011;55412;51.350;17.056;2023-06-26T05:26:01;8.10;;;3.65;;
68432;SDS011;55412;51.350;17.056;2023-06-26T05:28:28;7.88;;;4.00;;
68432;SDS011;55412;51.350;17.056;2023-06-26T05:30:58;7.90;;;4.15;;
68432;SDS011;55412;51.350;17.056;2023-06-26T05:33:26;9.10;;;4.05;;
68432;SDS011;55412;51.350;17.056;2023-06-26T05:35:53;7.53;;;3.87;;
68432;SDS011;55412;51.350;17.056;2023-06-26T05:38:20;9.10;;;4.07;;
68432;SDS011;55412;51.350;17.056;2023-06-26T05:40:46;7.28;;;3.45;;
68432;SDS011;55412;51.350;17.056;2023-06-26T05:43:13;7.63;;;3.45;;
68432;SDS011;55412;51.350;17.056;2023-06-26T05:45:40;7.75;;;4.18;;
68432;SDS011;55412;51.350;17.056;2023-06-26T05:48:06;8.87;;;3.43;;
68432;SDS011;55412;51.350;17.056;2023-06-26T05:50:32;7.25;;;4.15;;
68432;SDS011;55412;51.350;17.056;2023-06-26T05:52:59;7.07;;;3.85;;
68432;SDS011;55412;51.350;17.056;2023-06-26T05:55:28;6.50;;;3.65;;
68432;SDS011;55412;51.350;17.056;2023-06-26T05:57:54;7.68;;;4.10;;
68432;SDS011;55412;51.350;17.056;2023-06-26T06:00:24;7.33;;;3.77;;
68432;SDS011;55412;51.350;17.056;2023-06-26T06:02:53;9.82;;;3.80;;
68432;SDS011;55412;51.350;17.056;2023-06-26T06:05:20;7.53;;;3.75;;
68432;SDS011;55412;51.350;17.056;2023-06-26T06:07:47;7.65;;;4.03;;
68432;SDS011;55412;51.350;17.056;2023-06-26T06:10:15;7.65;;;3.67;;
68432;SDS011;55412;51.350;17.056;2023-06-26T06:12:41;11.07;;;3.97;;
68432;SDS011;55412;51.350;17.056;2023-06-26T06:15:07;9.32;;;4.03;;
68432;SDS011;55412;51.350;17.056;2023-06-26T06:17:33;9.32;;;4.28;;
68432;SDS011;55412;51.350;17.056;2023-06-26T06:19:59;9.00;;;4.57;;
68432;SDS011;55412;51.350;17.056;2023-06-26T06:22:25;8.30;;;4.20;;
68432;SDS011;55412;51.350;17.056;2023-06-26T06:24:51;8.10;;;4.27;;
68432;SDS011;55412;51.350;17.056;2023-06-26T06:27:17;6.90;;;3.97;;
68432;SDS011;55412;51.350;17.056;2023-06-26T06:29:44;6.78;;;3.55;;
68432;SDS011;55412;51.350;17.056;2023-06-26T06:32:10;8.68;;;3.90;;
68432;SDS011;55412;51.350;17.056;2023-06-26T06:34:36;6.63;;;3.87;;
68432;SDS011;55412;51.350;17.056;2023-06-26T06:37:02;10.47;;;3.60;;
68432;SDS011;55412;51.350;17.056;2023-06-26T06:39:29;9.15;;;4.15;;
68432;SDS011;55412;51.350;17.056;2023-06-26T06:41:55;7.78;;;4.43;;
68432;SDS011;55412;51.350;17.056;2023-06-26T06:44:21;7.70;;;3.83;;
68432;SDS011;55412;51.350;17.056;2023-06-26T06:46:47;6.20;;;3.60;;
68432;SDS011;55412;51.350;17.056;2023-06-26T06:49:13;7.73;;;4.07;;
68432;SDS011;55412;51.350;17.056;2023-06-26T06:51:40;6.07;;;3.80;;
68432;SDS011;55412;51.350;17.056;2023-06-26T06:54:06;8.02;;;3.90;;
68432;SDS011;55412;51.350;17.056;2023-06-26T06:56:32;6.38;;;3.72;;
68432;SDS011;55412;51.350;17.056;2023-06-26T06:58:58;10.95;;;4.03;;
68432;SDS011;55412;51.350;17.056;2023-06-26T07:01:24;5.50;;;3.90;;
68432;SDS011;55412;51.350;17.056;2023-06-26T07:03:50;5.68;;;3.65;;
68432;SDS011;55412;51.350;17.056;2023-06-26T07:06:16;9.07;;;4.20;;
68432;SDS011;55412;51.350;17.056;2023-06-26T07:08:42;7.10;;;4.07;;
68432;SDS011;55412;51.350;17.056;2023-06-26T07:11:08;8.47;;;4.43;;
68432;SDS011;55412;51.350;17.056;2023-06-26T07:13:34;5.77;;;4.17;;
68432;SDS011;55412;51.350;17.056;2023-06-26T07:16:00;6.22;;;3.97;;
68432;SDS011;55412;51.350;17.056;2023-06-26T07:18:26;6.38;;;4.28;;
68432;SDS011;55412;51.350;17.056;2023-06-26T07:20:52;7.35;;;4.57;;
68432;SDS011;55412;51.350;17.056;2023-06-26T07:23:18;6.65;;;4.35;;
68432;SDS011;55412;51.350;17.056;2023-06-26T07:25:44;8.60;;;4.40;;
68432;SDS011;55412;51.350;17.056;2023-06-26T07:28:10;6.28;;;4.25;;
68432;SDS011;55412;51.350;17.056;2023-06-26T07:30:37;7.28;;;5.35;;
68432;SDS011;55412;51.350;17.056;2023-06-26T07:33:03;6.80;;;4.47;;
68432;SDS011;55412;51.350;17.056;2023-06-26T07:35:29;7.53;;;5.07;;
68432;SDS011;55412;51.350;17.056;2023-06-26T07:37:56;8.30;;;4.13;;
68432;SDS011;55412;51.350;17.056;2023-06-26T07:40:22;7.63;;;4.38;;
68432;SDS011;55412;51.350;17.056;2023-06-26T07:42:48;6.80;;;4.45;;
68432;SDS011;55412;51.350;17.056;2023-06-26T07:45:15;6.97;;;3.95;;
68432;SDS011;55412;51.350;17.056;2023-06-26T07:47:41;6.93;;;4.60;;
68432;SDS011;55412;51.350;17.056;2023-06-26T07:50:07;7.40;;;4.70;;
68432;SDS011;55412;51.350;17.056;2023-06-26T07:52:34;7.43;;;4.28;;
68432;SDS011;55412;51.350;17.056;2023-06-26T07:55:00;8.25;;;4.03;;
68432;SDS011;55412;51.350;17.056;2023-06-26T07:57:26;5.88;;;3.58;;
68432;SDS011;55412;51.350;17.056;2023-06-26T07:59:52;6.10;;;3.92;;
68432;SDS011;55412;51.350;17.056;2023-06-26T08:02:18;8.30;;;3.77;;
68432;SDS011;55412;51.350;17.056;2023-06-26T08:04:44;8.57;;;3.75;;
68432;SDS011;55412;51.350;17.056;2023-06-26T08:07:10;7.38;;;4.32;;
68432;SDS011;55412;51.350;17.056;2023-06-26T08:09:36;7.15;;;3.72;;
68432;SDS011;55412;51.350;17.056;2023-06-26T08:12:03;6.15;;;3.53;;
68432;SDS011;55412;51.350;17.056;2023-06-26T08:14:29;6.00;;;3.50;;
68432;SDS011;55412;51.350;17.056;2023-06-26T08:16:56;11.70;;;3.80;;
68432;SDS011;55412;51.350;17.056;2023-06-26T08:19:24;9.27;;;4.00;;
68432;SDS011;55412;51.350;17.056;2023-06-26T08:21:50;6.60;;;4.00;;
68432;SDS011;55412;51.350;17.056;2023-06-26T08:24:16;6.75;;;3.30;;
68432;SDS011;55412;51.350;17.056;2023-06-26T08:26:44;6.83;;;3.43;;
68432;SDS011;55412;51.350;17.056;2023-06-26T08:29:11;7.75;;;3.88;;
68432;SDS011;55412;51.350;17.056;2023-06-26T08:31:38;6.65;;;3.70;;
68432;SDS011;55412;51.350;17.056;2023-06-26T08:34:05;5.35;;;2.97;;
68432;SDS011;55412;51.350;17.056;2023-06-26T08:36:32;7.30;;;3.08;;
68432;SDS011;55412;51.350;17.056;2023-06-26T08:38:58;5.60;;;3.07;;
68432;SDS011;55412;51.350;17.056;2023-06-26T08:41:24;7.03;;;3.72;;
68432;SDS011;55412;51.350;17.056;2023-06-26T08:43:50;14.65;;;3.83;;
68432;SDS011;55412;51.350;17.056;2023-06-26T08:46:18;7.57;;;3.08;;
68432;SDS011;55412;51.350;17.056;2023-06-26T08:48:57;6.82;;;3.28;;
68432;SDS011;55412;51.350;17.056;2023-06-26T08:51:50;7.13;;;3.50;;
68432;SDS011;55412;51.350;17.056;2023-06-26T08:54:25;6.45;;;3.10;;
68432;SDS011;55412;51.350;17.056;2023-06-26T08:56:58;7.53;;;3.45;;
68432;SDS011;55412;51.350;17.056;2023-06-26T08:59:24;6.78;;;3.35;;
68432;SDS011;55412;51.350;17.056;2023-06-26T09:01:51;6.43;;;3.35;;
68432;SDS011;55412;51.350;17.056;2023-06-26T09:04:17;6.70;;;3.13;;
68432;SDS011;55412;51.350;17.056;2023-06-26T09:06:43;6.28;;;3.20;;
68432;SDS011;55412;51.350;17.056;2023-06-26T09:09:10;7.40;;;3.22;;
68432;SDS011;55412;51.350;17.056;2023-06-26T09:11:36;6.55;;;3.30;;
68432;SDS011;55412;51.350;17.056;2023-06-26T09:14:02;5.30;;;3.00;;
68432;SDS011;55412;51.350;17.056;2023-06-26T09:16:32;5.43;;;3.00;;
68432;SDS011;55412;51.350;17.056;2023-06-26T09:19:08;6.20;;;3.20;;
68432;SDS011;55412;51.350;17.056;2023-06-26T09:21:38;6.35;;;3.17;;
68432;SDS011;55412;51.350;17.056;2023-06-26T09:24:06;5.30;;;2.65;;
68432;SDS011;55412;51.350;17.056;2023-06-26T09:26:35;5.50;;;2.78;;
68432;SDS011;55412;51.350;17.056;2023-06-26T09:29:05;6.53;;;2.97;;
68432;SDS011;55412;51.350;17.056;2023-06-26T09:31:33;6.63;;;2.83;;
68432;SDS011;55412;51.350;17.056;2023-06-26T09:34:01;6.18;;;2.72;;
68432;SDS011;55412;51.350;17.056;2023-06-26T09:36:30;6.85;;;3.42;;
68432;SDS011;55412;51.350;17.056;2023-06-26T09:39:07;6.78;;;3.08;;
68432;SDS011;55412;51.350;17.056;2023-06-26T09:41:42;6.17;;;2.87;;
68432;SDS011;55412;51.350;17.056;2023-06-26T09:44:10;7.78;;;3.35;;
68432;SDS011;55412;51.350;17.056;2023-06-26T09:46:38;5.97;;;3.63;;
68432;SDS011;55412;51.350;17.056;2023-06-26T09:49:08;8.02;;;3.13;;
68432;SDS011;55412;51.350;17.056;2023-06-26T09:51:37;6.90;;;2.75;;
68432;SDS011;55412;51.350;17.056;2023-06-26T09:54:06;7.47;;;2.70;;
68432;SDS011;55412;51.350;17.056;2023-06-26T09:56:33;7.22;;;3.17;;
68432;SDS011;55412;51.350;17.056;2023-06-26T09:59:00;7.72;;;2.92;;
68432;SDS011;55412;51.350;17.056;2023-06-26T10:01:29;5.05;;;2.53;;
68432;SDS011;55412;51.350;17.056;2023-06-26T10:03:57;7.25;;;3.00;;
68432;SDS011;55412;51.350;17.056;2023-06-26T10:06:33;7.43;;;3.27;;
68432;SDS011;55412;51.350;17.056;2023-06-26T10:09:02;6.18;;;3.30;;
68432;SDS011;55412;51.350;17.056;2023-06-26T10:11:35;7.88;;;2.92;;
68432;SDS011;55412;51.350;17.056;2023-06-26T10:14:07;5.50;;;3.10;;
68432;SDS011;55412;51.350;17.056;2023-06-26T10:16:34;6.05;;;2.80;;
68432;SDS011;55412;51.350;17.056;2023-06-26T10:19:04;5.30;;;2.77;;
68432;SDS011;55412;51.350;17.056;2023-06-26T10:21:34;6.05;;;2.95;;
68432;SDS011;55412;51.350;17.056;2023-06-26T10:24:04;4.95;;;2.70;;
68432;SDS011;55412;51.350;17.056;2023-06-26T10:26:32;6.05;;;2.60;;
68432;SDS011;55412;51.350;17.056;2023-06-26T10:29:07;5.70;;;2.80;;
68432;SDS011;55412;51.350;17.056;2023-06-26T10:31:34;6.63;;;3.20;;
68432;SDS011;55412;51.350;17.056;2023-06-26T10:34:02;6.60;;;3.38;;
68432;SDS011;55412;51.350;17.056;2023-06-26T10:36:30;7.50;;;3.33;;
68432;SDS011;55412;51.350;17.056;2023-06-26T10:38:58;8.02;;;3.50;;
68432;SDS011;55412;51.350;17.056;2023-06-26T10:41:35;7.57;;;2.92;;
68432;SDS011;55412;51.350;17.056;2023-06-26T10:44:15;5.00;;;2.67;;
68432;SDS011;55412;51.350;17.056;2023-06-26T10:49:25;8.77;;;3.45;;
68432;SDS011;55412;51.350;17.056;2023-06-26T10:51:53;6.95;;;3.13;;
68432;SDS011;55412;51.350;17.056;2023-06-26T10:54:22;5.63;;;2.88;;
68432;SDS011;55412;51.350;17.056;2023-06-26T10:56:49;10.57;;;3.03;;
68432;SDS011;55412;51.350;17.056;2023-06-26T10:59:18;6.20;;;3.08;;
68432;SDS011;55412;51.350;17.056;2023-06-26T11:01:46;6.40;;;2.63;;
68432;SDS011;55412;51.350;17.056;2023-06-26T11:07:24;10.35;;;3.63;;
68432;SDS011;55412;51.350;17.056;2023-06-26T11:15:16;6.72;;;2.92;;
68432;SDS011;55412;51.350;17.056;2023-06-26T11:17:44;5.43;;;2.97;;
68432;SDS011;55412;51.350;17.056;2023-06-26T11:20:11;7.25;;;2.90;;
68432;SDS011;55412;51.350;17.056;2023-06-26T11:22:41;5.03;;;2.77;;
68432;SDS011;55412;51.350;17.056;2023-06-26T11:25:09;5.40;;;2.53;;
68432;SDS011;55412;51.350;17.056;2023-06-26T11:27:42;5.10;;;2.95;;
68432;SDS011;55412;51.350;17.056;2023-06-26T11:30:09;5.13;;;3.17;;
68432;SDS011;55412;51.350;17.056;2023-06-26T11:32:48;6.00;;;3.20;;
68432;SDS011;55412;51.350;17.056;2023-06-26T11:35:21;6.23;;;2.60;;
68432;SDS011;55412;51.350;17.056;2023-06-26T11:37:55;6.03;;;2.63;;
68432;SDS011;55412;51.350;17.056;2023-06-26T11:40:25;6.20;;;2.53;;
68432;SDS011;55412;51.350;17.056;2023-06-26T11:43:00;5.45;;;2.70;;
68432;SDS011;55412;51.350;17.056;2023-06-26T11:45:31;5.57;;;2.97;;
68432;SDS011;55412;51.350;17.056;2023-06-26T11:47:58;6.50;;;3.37;;
68432;SDS011;55412;51.350;17.056;2023-06-26T11:50:25;7.20;;;2.60;;
68432;SDS011;55412;51.350;17.056;2023-06-26T11:52:54;5.63;;;2.35;;
68432;SDS011;55412;51.350;17.056;2023-06-26T11:55:21;5.28;;;2.75;;
68432;SDS011;55412;51.350;17.056;2023-06-26T11:57:57;4.88;;;2.55;;
68432;SDS011;55412;51.350;17.056;2023-06-26T12:00:23;7.43;;;2.83;;
68432;SDS011;55412;51.350;17.056;2023-06-26T12:02:49;5.30;;;2.50;;
68432;SDS011;55412;51.350;17.056;2023-06-26T12:05:17;5.68;;;2.40;;
68432;SDS011;55412;51.350;17.056;2023-06-26T12:07:45;5.72;;;2.63;;
68432;SDS011;55412;51.350;17.056;2023-06-26T12:10:13;5.38;;;2.85;;
68432;SDS011;55412;51.350;17.056;2023-06-26T12:12:40;5.40;;;2.77;;
68432;SDS011;55412;51.350;17.056;2023-06-26T12:15:07;5.18;;;2.80;;
68432;SDS011;55412;51.350;17.056;2023-06-26T12:17:39;10.00;;;2.92;;
68432;SDS011;55412;51.350;17.056;2023-06-26T12:20:05;7.00;;;3.33;;
68432;SDS011;55412;51.350;17.056;2023-06-26T12:22:50;5.68;;;2.88;;
68432;SDS011;55412;51.350;17.056;2023-06-26T12:25:23;6.70;;;2.90;;
68432;SDS011;55412;51.350;17.056;2023-06-26T12:27:49;6.47;;;3.10;;
68432;SDS011;55412;51.350;17.056;2023-06-26T12:30:15;5.75;;;2.80;;
68432;SDS011;55412;51.350;17.056;2023-06-26T12:32:45;5.10;;;2.58;;
68432;SDS011;55412;51.350;17.056;2023-06-26T12:35:14;8.57;;;2.92;;
68432;SDS011;55412;51.350;17.056;2023-06-26T12:37:41;7.13;;;2.97;;
68432;SDS011;55412;51.350;17.056;2023-06-26T12:40:16;6.10;;;3.20;;
68432;SDS011;55412;51.350;17.056;2023-06-26T12:42:48;5.70;;;2.50;;
68432;SDS011;55412;51.350;17.056;2023-06-26T12:45:15;4.55;;;2.50;;
68432;SDS011;55412;51.350;17.056;2023-06-26T12:47:41;5.30;;;2.50;;
68432;SDS011;55412;51.350;17.056;2023-06-26T12:50:07;6.33;;;3.23;;
68432;SDS011;55412;51.350;17.056;2023-06-26T12:52:34;6.95;;;2.75;;
68432;SDS011;55412;51.350;17.056;2023-06-26T12:55:00;4.90;;;2.30;;
68432;SDS011;55412;51.350;17.056;2023-06-26T12:57:26;5.45;;;2.35;;
68432;SDS011;55412;51.350;17.056;2023-06-26T12:59:52;5.65;;;3.05;;
68432;SDS011;55412;51.350;17.056;2023-06-26T13:02:18;5.70;;;2.93;;
68432;SDS011;55412;51.350;17.056;2023-06-26T13:04:44;6.15;;;3.00;;
68432;SDS011;55412;51.350;17.056;2023-06-26T13:07:11;8.43;;;3.28;;
68432;SDS011;55412;51.350;17.056;2023-06-26T13:09:37;7.43;;;2.17;;
68432;SDS011;55412;51.350;17.056;2023-06-26T13:12:04;5.22;;;2.35;;
68432;SDS011;55412;51.350;17.056;2023-06-26T13:14:31;5.10;;;2.83;;
68432;SDS011;55412;51.350;17.056;2023-06-26T13:16:58;5.68;;;2.17;;
68432;SDS011;55412;51.350;17.056;2023-06-26T13:19:25;7.30;;;3.03;;
68432;SDS011;55412;51.350;17.056;2023-06-26T13:21:52;5.30;;;2.97;;
68432;SDS011;55412;51.350;17.056;2023-06-26T13:24:19;5.75;;;2.30;;
68432;SDS011;55412;51.350;17.056;2023-06-26T13:26:45;9.67;;;2.30;;
68432;SDS011;55412;51.350;17.056;2023-06-26T13:29:12;5.47;;;2.83;;
68432;SDS011;55412;51.350;17.056;2023-06-26T13:31:39;4.15;;;1.67;;
68432;SDS011;55412;51.350;17.056;2023-06-26T13:34:05;5.82;;;2.75;;
68432;SDS011;55412;51.350;17.056;2023-06-26T13:36:31;5.85;;;2.10;;
68432;SDS011;55412;51.350;17.056;2023-06-26T13:38:59;4.47;;;2.73;;
68432;SDS011;55412;51.350;17.056;2023-06-26T13:41:25;5.30;;;2.42;;
68432;SDS011;55412;51.350;17.056;2023-06-26T13:43:53;8.27;;;2.53;;
68432;SDS011;55412;51.350;17.056;2023-06-26T13:46:19;4.70;;;2.78;;
68432;SDS011;55412;51.350;17.056;2023-06-26T13:48:45;4.50;;;2.45;;
68432;SDS011;55412;51.350;17.056;2023-06-26T13:51:11;5.27;;;2.80;;
68432;SDS011;55412;51.350;17.056;2023-06-26T13:53:38;4.82;;;2.53;;
68432;SDS011;55412;51.350;17.056;2023-06-26T13:56:04;5.75;;;3.65;;
68432;SDS011;55412;51.350;17.056;2023-06-26T13:58:30;5.20;;;2.40;;
68432;SDS011;55412;51.350;17.056;2023-06-26T14:00:57;4.85;;;2.88;;
68432;SDS011;55412;51.350;17.056;2023-06-26T14:03:26;5.13;;;2.90;;
68432;SDS011;55412;51.350;17.056;2023-06-26T14:05:53;3.78;;;1.80;;
68432;SDS011;55412;51.350;17.056;2023-06-26T14:08:19;7.20;;;2.38;;
68432;SDS011;55412;51.350;17.056;2023-06-26T14:10:45;5.32;;;2.15;;
68432;SDS011;55412;51.350;17.056;2023-06-26T14:13:12;6.47;;;2.80;;
68432;SDS011;55412;51.350;17.056;2023-06-26T14:15:40;5.97;;;2.10;;
68432;SDS011;55412;51.350;17.056;2023-06-26T14:18:07;4.93;;;1.88;;
68432;SDS011;55412;51.350;17.056;2023-06-26T14:20:33;4.53;;;2.42;;
68432;SDS011;55412;51.350;17.056;2023-06-26T14:23:01;4.10;;;2.03;;
68432;SDS011;55412;51.350;17.056;2023-06-26T14:25:27;5.13;;;2.85;;
68432;SDS011;55412;51.350;17.056;2023-06-26T14:27:56;6.20;;;2.20;;
68432;SDS011;55412;51.350;17.056;2023-06-26T14:30:23;5.88;;;2.90;;
68432;SDS011;55412;51.350;17.056;2023-06-26T14:32:49;5.63;;;3.17;;
68432;SDS011;55412;51.350;17.056;2023-06-26T14:35:15;5.20;;;2.90;;
68432;SDS011;55412;51.350;17.056;2023-06-26T14:37:42;5.30;;;2.80;;
68432;SDS011;55412;51.350;17.056;2023-06-26T14:40:09;6.67;;;2.47;;
68432;SDS011;55412;51.350;17.056;2023-06-26T14:42:36;4.63;;;2.00;;
68432;SDS011;55412;51.350;17.056;2023-06-26T14:45:02;7.97;;;3.42;;
68432;SDS011;55412;51.350;17.056;2023-06-26T14:47:29;4.18;;;2.05;;
68432;SDS011;55412;51.350;17.056;2023-06-26T14:49:55;4.53;;;2.45;;
68432;SDS011;55412;51.350;17.056;2023-06-26T14:52:21;4.93;;;2.50;;
68432;SDS011;55412;51.350;17.056;2023-06-26T14:54:47;6.30;;;2.70;;
68432;SDS011;55412;51.350;17.056;2023-06-26T14:57:13;4.68;;;2.25;;
68432;SDS011;55412;51.350;17.056;2023-06-26T14:59:39;9.43;;;3.10;;
68432;SDS011;55412;51.350;17.056;2023-06-26T15:02:05;5.85;;;2.03;;